sensor_id;sensor_type;location;lat;lon;timestamp;P1;durP1;ratioP1;P2;durP2;ratioP2
74177;SDS011;62540;48.456;-4.456;2023-02-15T00:01:46;18.25;;;16.25;;
74177;SDS011;62540;48.456;-4.456;2023-02-15T00:04:12;20.50;;;18.00;;
74177;SDS011;62540;48.456;-4.456;2023-02-15T00:06:39;18.25;;;15.00;;
74177;SDS011;62540;48.456;-4.456;2023-02-15T00:09:05;19.75;;;17.25;;
74177;SDS011;62540;48.456;-4.456;2023-02-15T00:11:30;22.00;;;19.50;;
74177;SDS011;62540;48.456;-4.456;2023-02-15T00:16:30;24.25;;;21.75;;
74177;SDS011;62540;48.456;-4.456;2023-02-15T00:18:55;19.50;;;18.50;;
74177;SDS011;62540;48.456;-4.456;2023-02-15T00:21:21;18.75;;;17.00;;
74177;SDS011;62540;48.456;-4.456;2023-02-15T00:23:46;17.25;;;17.25;;
74177;SDS011;62540;48.456;-4.456;2023-02-15T00:26:12;18.25;;;13.75;;
74177;SDS011;62540;48.456;-4.456;2023-02-15T00:28:37;18.75;;;18.50;;
74177;SDS011;62540;48.456;-4.456;2023-02-15T00:31:07;14.25;;;13.00;;
74177;SDS011;62540;48.456;-4.456;2023-02-15T00:33:35;17.25;;;16.00;;
74177;SDS011;62540;48.456;-4.456;2023-02-15T00:36:01;20.25;;;18.25;;
74177;SDS011;62540;48.456;-4.456;2023-02-15T00:38:27;25.00;;;17.50;;
74177;SDS011;62540;48.456;-4.456;2023-02-15T00:40:54;17.50;;;16.00;;
74177;SDS011;62540;48.456;-4.456;2023-02-15T00:43:21;18.25;;;17.25;;
74177;SDS011;62540;48.456;-4.456;2023-02-15T00:45:46;18.75;;;17.25;;
74177;SDS011;62540;48.456;-4.456;2023-02-15T00:48:12;21.00;;;18.50;;
74177;SDS011;62540;48.456;-4.456;2023-02-15T00:50:37;17.25;;;15.00;;
74177;SDS011;62540;48.456;-4.456;2023-02-15T00:53:02;22.25;;;19.25;;
74177;SDS011;62540;48.456;-4.456;2023-02-15T00:55:28;18.00;;;16.50;;
74177;SDS011;62540;48.456;-4.456;2023-02-15T00:57:53;19.00;;;17.75;;
74177;SDS011;62540;48.456;-4.456;2023-02-15T01:00:19;15.50;;;14.25;;
74177;SDS011;62540;48.456;-4.456;2023-02-15T01:02:44;16.25;;;12.25;;
74177;SDS011;62540;48.456;-4.456;2023-02-15T01:05:09;19.50;;;17.00;;
74177;SDS011;62540;48.456;-4.456;2023-02-15T01:07:35;17.00;;;16.00;;
74177;SDS011;62540;48.456;-4.456;2023-02-15T01:10:00;20.75;;;19.25;;
74177;SDS011;62540;48.456;-4.456;2023-02-15T01:12:26;18.50;;;17.00;;
74177;SDS011;62540;48.456;-4.456;2023-02-15T01:14:51;20.75;;;19.25;;
74177;SDS011;62540;48.456;-4.456;2023-02-15T01:17:17;19.75;;;18.00;;
74177;SDS011;62540;48.456;-4.456;2023-02-15T01:19:42;20.00;;;18.25;;
74177;SDS011;62540;48.456;-4.456;2023-02-15T01:22:07;17.00;;;15.75;;
74177;SDS011;62540;48.456;-4.456;2023-02-15T01:24:33;18.25;;;16.25;;
74177;SDS011;62540;48.456;-4.456;2023-02-15T01:26:58;16.00;;;16.00;;
74177;SDS011;62540;48.456;-4.456;2023-02-15T01:29:24;17.25;;;15.50;;
74177;SDS011;62540;48.456;-4.456;2023-02-15T01:31:49;16.75;;;13.25;;
74177;SDS011;62540;48.456;-4.456;2023-02-15T01:34:14;16.75;;;15.75;;
74177;SDS011;62540;48.456;-4.456;2023-02-15T01:36:40;18.50;;;17.50;;
74177;SDS011;62540;48.456;-4.456;2023-02-15T01:39:05;18.50;;;17.00;;
74177;SDS011;62540;48.456;-4.456;2023-02-15T01:41:32;18.00;;;16.25;;
74177;SDS011;62540;48.456;-4.456;2023-02-15T01:43:59;21.75;;;16.25;;
74177;SDS011;62540;48.456;-4.456;2023-02-15T01:46:41;19.00;;;17.75;;
74177;SDS011;62540;48.456;-4.456;2023-02-15T01:49:17;24.00;;;17.25;;
74177;SDS011;62540;48.456;-4.456;2023-02-15T01:51:46;17.25;;;15.25;;
74177;SDS011;62540;48.456;-4.456;2023-02-15T01:56:42;17.00;;;16.00;;
74177;SDS011;62540;48.456;-4.456;2023-02-15T01:59:09;21.75;;;16.75;;
74177;SDS011;62540;48.456;-4.456;2023-02-15T02:01:38;16.25;;;14.50;;
74177;SDS011;62540;48.456;-4.456;2023-02-15T02:06:52;13.75;;;11.50;;
74177;SDS011;62540;48.456;-4.456;2023-02-15T02:09:19;17.00;;;16.25;;
74177;SDS011;62540;48.456;-4.456;2023-02-15T02:11:44;18.50;;;16.25;;
74177;SDS011;62540;48.456;-4.456;2023-02-15T02:14:12;19.00;;;15.00;;
74177;SDS011;62540;48.456;-4.456;2023-02-15T02:16:41;13.25;;;13.00;;
74177;SDS011;62540;48.456;-4.456;2023-02-15T02:27:47;19.50;;;16.50;;
74177;SDS011;62540;48.456;-4.456;2023-02-15T02:33:32;15.50;;;14.75;;
74177;SDS011;62540;48.456;-4.456;2023-02-15T02:36:11;20.00;;;16.50;;
74177;SDS011;62540;48.456;-4.456;2023-02-15T02:41:22;16.25;;;15.75;;
74177;SDS011;62540;48.456;-4.456;2023-02-15T02:49:35;17.00;;;16.00;;
74177;SDS011;62540;48.456;-4.456;2023-02-15T02:52:06;17.25;;;15.50;;
74177;SDS011;62540;48.456;-4.456;2023-02-15T02:54:52;15.75;;;15.50;;
74177;SDS011;62540;48.456;-4.456;2023-02-15T02:57:18;16.00;;;14.50;;
74177;SDS011;62540;48.456;-4.456;2023-02-15T02:59:49;17.50;;;16.00;;
74177;SDS011;62540;48.456;-4.456;2023-02-15T03:02:26;18.50;;;16.75;;
74177;SDS011;62540;48.456;-4.456;2023-02-15T03:04:58;20.25;;;18.75;;
74177;SDS011;62540;48.456;-4.456;2023-02-15T03:07:28;12.00;;;11.00;;
74177;SDS011;62540;48.456;-4.456;2023-02-15T03:09:56;18.75;;;16.50;;
74177;SDS011;62540;48.456;-4.456;2023-02-15T03:12:24;17.50;;;16.75;;
74177;SDS011;62540;48.456;-4.456;2023-02-15T03:14:56;22.50;;;18.50;;
74177;SDS011;62540;48.456;-4.456;2023-02-15T03:17:27;19.25;;;17.75;;
74177;SDS011;62540;48.456;-4.456;2023-02-15T03:19:57;16.25;;;16.00;;
74177;SDS011;62540;48.456;-4.456;2023-02-15T03:22:29;25.25;;;21.75;;
74177;SDS011;62540;48.456;-4.456;2023-02-15T03:27:42;26.25;;;19.50;;
74177;SDS011;62540;48.456;-4.456;2023-02-15T03:30:11;24.25;;;21.25;;
74177;SDS011;62540;48.456;-4.456;2023-02-15T03:32:39;24.50;;;21.75;;
74177;SDS011;62540;48.456;-4.456;2023-02-15T03:35:06;23.50;;;23.25;;
74177;SDS011;62540;48.456;-4.456;2023-02-15T03:37:37;28.00;;;22.50;;
74177;SDS011;62540;48.456;-4.456;2023-02-15T03:43:25;19.75;;;17.50;;
74177;SDS011;62540;48.456;-4.456;2023-02-15T03:46:00;20.75;;;18.75;;
74177;SDS011;62540;48.456;-4.456;2023-02-15T03:48:50;21.75;;;18.00;;
74177;SDS011;62540;48.456;-4.456;2023-02-15T03:51:19;20.75;;;15.25;;
74177;SDS011;62540;48.456;-4.456;2023-02-15T03:54:07;22.75;;;20.00;;
74177;SDS011;62540;48.456;-4.456;2023-02-15T03:56:36;20.50;;;18.75;;
74177;SDS011;62540;48.456;-4.456;2023-02-15T03:59:03;24.25;;;20.75;;
74177;SDS011;62540;48.456;-4.456;2023-02-15T04:04:43;18.00;;;18.00;;
74177;SDS011;62540;48.456;-4.456;2023-02-15T04:07:11;25.25;;;22.50;;
74177;SDS011;62540;48.456;-4.456;2023-02-15T04:09:37;23.00;;;20.00;;
74177;SDS011;62540;48.456;-4.456;2023-02-15T04:12:21;27.50;;;23.75;;
74177;SDS011;62540;48.456;-4.456;2023-02-15T04:14:46;24.75;;;21.50;;
74177;SDS011;62540;48.456;-4.456;2023-02-15T04:17:30;23.75;;;18.00;;
74177;SDS011;62540;48.456;-4.456;2023-02-15T04:19:56;27.00;;;18.25;;
74177;SDS011;62540;48.456;-4.456;2023-02-15T04:22:40;27.25;;;24.25;;
74177;SDS011;62540;48.456;-4.456;2023-02-15T04:25:24;23.25;;;20.00;;
74177;SDS011;62540;48.456;-4.456;2023-02-15T04:27:50;20.75;;;19.25;;
74177;SDS011;62540;48.456;-4.456;2023-02-15T04:30:18;25.25;;;22.75;;
74177;SDS011;62540;48.456;-4.456;2023-02-15T04:32:45;21.25;;;17.75;;
74177;SDS011;62540;48.456;-4.456;2023-02-15T04:35:12;24.75;;;22.50;;
74177;SDS011;62540;48.456;-4.456;2023-02-15T04:37:38;28.50;;;24.75;;
74177;SDS011;62540;48.456;-4.456;2023-02-15T04:40:04;25.00;;;24.00;;
74177;SDS011;62540;48.456;-4.456;2023-02-15T04:42:31;24.25;;;23.25;;
74177;SDS011;62540;48.456;-4.456;2023-02-15T04:44:56;31.50;;;24.00;;
74177;SDS011;62540;48.456;-4.456;2023-02-15T04:47:22;27.25;;;26.25;;
74177;SDS011;62540;48.456;-4.456;2023-02-15T04:49:47;26.25;;;24.50;;
74177;SDS011;62540;48.456;-4.456;2023-02-15T04:52:13;26.50;;;25.25;;
74177;SDS011;62540;48.456;-4.456;2023-02-15T04:54:38;24.50;;;20.00;;
74177;SDS011;62540;48.456;-4.456;2023-02-15T04:57:04;24.75;;;22.75;;
74177;SDS011;62540;48.456;-4.456;2023-02-15T04:59:30;27.25;;;22.00;;
74177;SDS011;62540;48.456;-4.456;2023-02-15T05:01:56;25.50;;;20.50;;
74177;SDS011;62540;48.456;-4.456;2023-02-15T05:04:21;23.25;;;21.00;;
74177;SDS011;62540;48.456;-4.456;2023-02-15T05:06:47;25.25;;;22.25;;
74177;SDS011;62540;48.456;-4.456;2023-02-15T05:09:12;24.25;;;22.25;;
74177;SDS011;62540;48.456;-4.456;2023-02-15T05:11:38;20.50;;;19.50;;
74177;SDS011;62540;48.456;-4.456;2023-02-15T05:14:04;23.00;;;18.25;;
74177;SDS011;62540;48.456;-4.456;2023-02-15T05:16:29;24.50;;;23.50;;
74177;SDS011;62540;48.456;-4.456;2023-02-15T05:18:55;28.25;;;22.25;;
74177;SDS011;62540;48.456;-4.456;2023-02-15T05:21:20;25.25;;;22.50;;
74177;SDS011;62540;48.456;-4.456;2023-02-15T05:23:46;25.25;;;22.00;;
74177;SDS011;62540;48.456;-4.456;2023-02-15T05:26:12;28.50;;;24.75;;
74177;SDS011;62540;48.456;-4.456;2023-02-15T05:29:00;31.25;;;24.75;;
74177;SDS011;62540;48.456;-4.456;2023-02-15T05:31:25;27.75;;;25.00;;
74177;SDS011;62540;48.456;-4.456;2023-02-15T05:33:51;28.00;;;22.00;;
74177;SDS011;62540;48.456;-4.456;2023-02-15T05:36:16;34.00;;;26.25;;
74177;SDS011;62540;48.456;-4.456;2023-02-15T05:38:42;31.00;;;25.25;;
74177;SDS011;62540;48.456;-4.456;2023-02-15T05:41:08;34.25;;;27.50;;
74177;SDS011;62540;48.456;-4.456;2023-02-15T05:43:35;26.00;;;24.00;;
74177;SDS011;62540;48.456;-4.456;2023-02-15T05:46:01;22.75;;;20.75;;
74177;SDS011;62540;48.456;-4.456;2023-02-15T05:48:27;29.00;;;25.50;;
74177;SDS011;62540;48.456;-4.456;2023-02-15T05:50:57;27.50;;;25.00;;
74177;SDS011;62540;48.456;-4.456;2023-02-15T05:53:41;36.00;;;24.75;;
74177;SDS011;62540;48.456;-4.456;2023-02-15T05:56:08;28.00;;;22.00;;
74177;SDS011;62540;48.456;-4.456;2023-02-15T05:58:35;28.75;;;25.00;;
74177;SDS011;62540;48.456;-4.456;2023-02-15T06:01:12;26.50;;;24.75;;
74177;SDS011;62540;48.456;-4.456;2023-02-15T06:03:39;25.25;;;23.25;;
74177;SDS011;62540;48.456;-4.456;2023-02-15T06:06:05;29.00;;;25.00;;
74177;SDS011;62540;48.456;-4.456;2023-02-15T06:08:31;32.75;;;29.00;;
74177;SDS011;62540;48.456;-4.456;2023-02-15T06:10:58;35.50;;;26.25;;
74177;SDS011;62540;48.456;-4.456;2023-02-15T06:13:23;21.50;;;21.50;;
74177;SDS011;62540;48.456;-4.456;2023-02-15T06:15:48;29.25;;;24.50;;
74177;SDS011;62540;48.456;-4.456;2023-02-15T06:18:14;27.50;;;25.75;;
74177;SDS011;62540;48.456;-4.456;2023-02-15T06:20:39;32.25;;;29.25;;
74177;SDS011;62540;48.456;-4.456;2023-02-15T06:23:04;30.25;;;25.50;;
74177;SDS011;62540;48.456;-4.456;2023-02-15T06:25:30;31.50;;;26.25;;
74177;SDS011;62540;48.456;-4.456;2023-02-15T06:27:55;29.00;;;25.75;;
74177;SDS011;62540;48.456;-4.456;2023-02-15T06:30:21;28.50;;;26.50;;
74177;SDS011;62540;48.456;-4.456;2023-02-15T06:32:46;27.75;;;26.50;;
74177;SDS011;62540;48.456;-4.456;2023-02-15T06:35:12;32.00;;;27.75;;
74177;SDS011;62540;48.456;-4.456;2023-02-15T06:37:38;26.75;;;24.75;;
74177;SDS011;62540;48.456;-4.456;2023-02-15T06:40:03;29.50;;;24.25;;
74177;SDS011;62540;48.456;-4.456;2023-02-15T06:42:29;30.75;;;28.50;;
74177;SDS011;62540;48.456;-4.456;2023-02-15T06:44:55;30.00;;;28.25;;
74177;SDS011;62540;48.456;-4.456;2023-02-15T06:47:20;32.25;;;25.00;;
74177;SDS011;62540;48.456;-4.456;2023-02-15T06:49:46;24.00;;;22.75;;
74177;SDS011;62540;48.456;-4.456;2023-02-15T06:52:11;35.00;;;30.50;;
74177;SDS011;62540;48.456;-4.456;2023-02-15T06:54:37;37.50;;;32.75;;
74177;SDS011;62540;48.456;-4.456;2023-02-15T06:57:02;33.75;;;28.00;;
74177;SDS011;62540;48.456;-4.456;2023-02-15T06:59:28;44.00;;;33.25;;
74177;SDS011;62540;48.456;-4.456;2023-02-15T07:01:53;33.75;;;28.75;;
74177;SDS011;62540;48.456;-4.456;2023-02-15T07:04:18;32.25;;;27.75;;
74177;SDS011;62540;48.456;-4.456;2023-02-15T07:06:44;31.50;;;27.75;;
74177;SDS011;62540;48.456;-4.456;2023-02-15T07:09:10;36.25;;;29.50;;
74177;SDS011;62540;48.456;-4.456;2023-02-15T07:11:35;25.75;;;24.75;;
74177;SDS011;62540;48.456;-4.456;2023-02-15T07:14:19;30.00;;;28.00;;
74177;SDS011;62540;48.456;-4.456;2023-02-15T07:16:45;35.25;;;26.00;;
74177;SDS011;62540;48.456;-4.456;2023-02-15T07:19:10;36.75;;;33.00;;
74177;SDS011;62540;48.456;-4.456;2023-02-15T07:21:35;30.25;;;28.00;;
74177;SDS011;62540;48.456;-4.456;2023-02-15T07:24:01;28.75;;;26.50;;
74177;SDS011;62540;48.456;-4.456;2023-02-15T07:26:27;42.00;;;32.75;;
74177;SDS011;62540;48.456;-4.456;2023-02-15T07:28:52;34.75;;;31.50;;
74177;SDS011;62540;48.456;-4.456;2023-02-15T07:31:18;42.25;;;34.25;;
74177;SDS011;62540;48.456;-4.456;2023-02-15T07:33:43;36.00;;;31.75;;
74177;SDS011;62540;48.456;-4.456;2023-02-15T07:36:09;31.00;;;28.00;;
74177;SDS011;62540;48.456;-4.456;2023-02-15T07:38:38;37.25;;;33.00;;
74177;SDS011;62540;48.456;-4.456;2023-02-15T07:41:05;35.25;;;31.25;;
74177;SDS011;62540;48.456;-4.456;2023-02-15T07:43:34;33.75;;;31.75;;
74177;SDS011;62540;48.456;-4.456;2023-02-15T07:46:05;37.75;;;30.50;;
74177;SDS011;62540;48.456;-4.456;2023-02-15T07:48:32;34.75;;;31.00;;
74177;SDS011;62540;48.456;-4.456;2023-02-15T07:51:02;36.75;;;32.25;;
74177;SDS011;62540;48.456;-4.456;2023-02-15T07:53:29;42.00;;;32.75;;
74177;SDS011;62540;48.456;-4.456;2023-02-15T07:55:59;34.25;;;30.00;;
74177;SDS011;62540;48.456;-4.456;2023-02-15T07:58:25;34.00;;;30.75;;
74177;SDS011;62540;48.456;-4.456;2023-02-15T08:01:10;38.00;;;31.25;;
74177;SDS011;62540;48.456;-4.456;2023-02-15T08:03:36;40.75;;;36.00;;
74177;SDS011;62540;48.456;-4.456;2023-02-15T08:06:01;39.00;;;33.00;;
74177;SDS011;62540;48.456;-4.456;2023-02-15T08:08:27;38.25;;;30.50;;
74177;SDS011;62540;48.456;-4.456;2023-02-15T08:13:42;34.00;;;32.75;;
74177;SDS011;62540;48.456;-4.456;2023-02-15T08:16:18;35.25;;;32.00;;
74177;SDS011;62540;48.456;-4.456;2023-02-15T08:18:54;32.25;;;29.25;;
74177;SDS011;62540;48.456;-4.456;2023-02-15T08:21:20;37.25;;;32.75;;
74177;SDS011;62540;48.456;-4.456;2023-02-15T08:23:47;41.50;;;34.50;;
74177;SDS011;62540;48.456;-4.456;2023-02-15T08:26:12;36.25;;;31.75;;
74177;SDS011;62540;48.456;-4.456;2023-02-15T08:28:38;36.50;;;32.25;;
74177;SDS011;62540;48.456;-4.456;2023-02-15T08:33:32;30.00;;;27.50;;
74177;SDS011;62540;48.456;-4.456;2023-02-15T08:36:02;36.75;;;32.00;;
74177;SDS011;62540;48.456;-4.456;2023-02-15T08:38:28;32.75;;;29.75;;
74177;SDS011;62540;48.456;-4.456;2023-02-15T08:40:54;29.50;;;28.25;;
74177;SDS011;62540;48.456;-4.456;2023-02-15T08:43:19;30.25;;;27.75;;
74177;SDS011;62540;48.456;-4.456;2023-02-15T08:45:44;35.00;;;29.75;;
74177;SDS011;62540;48.456;-4.456;2023-02-15T08:48:10;36.00;;;29.25;;
74177;SDS011;62540;48.456;-4.456;2023-02-15T08:50:35;31.50;;;28.00;;
74177;SDS011;62540;48.456;-4.456;2023-02-15T08:53:00;30.75;;;29.00;;
74177;SDS011;62540;48.456;-4.456;2023-02-15T08:55:26;33.75;;;31.00;;
74177;SDS011;62540;48.456;-4.456;2023-02-15T08:57:51;33.50;;;30.25;;
74177;SDS011;62540;48.456;-4.456;2023-02-15T09:00:20;32.75;;;29.75;;
74177;SDS011;62540;48.456;-4.456;2023-02-15T09:02:47;37.25;;;32.25;;
74177;SDS011;62540;48.456;-4.456;2023-02-15T09:05:13;37.75;;;33.00;;
74177;SDS011;62540;48.456;-4.456;2023-02-15T09:07:38;33.75;;;30.50;;
74177;SDS011;62540;48.456;-4.456;2023-02-15T09:10:04;41.25;;;30.50;;
74177;SDS011;62540;48.456;-4.456;2023-02-15T09:12:31;33.50;;;31.50;;
74177;SDS011;62540;48.456;-4.456;2023-02-15T09:14:56;37.50;;;30.50;;
74177;SDS011;62540;48.456;-4.456;2023-02-15T09:17:21;35.75;;;30.00;;
74177;SDS011;62540;48.456;-4.456;2023-02-15T09:19:47;32.00;;;30.00;;
74177;SDS011;62540;48.456;-4.456;2023-02-15T09:22:12;30.50;;;28.00;;
74177;SDS011;62540;48.456;-4.456;2023-02-15T09:24:38;33.00;;;29.00;;
74177;SDS011;62540;48.456;-4.456;2023-02-15T09:27:03;38.50;;;33.00;;
74177;SDS011;62540;48.456;-4.456;2023-02-15T09:29:28;34.50;;;30.25;;
74177;SDS011;62540;48.456;-4.456;2023-02-15T09:31:54;31.75;;;28.25;;
74177;SDS011;62540;48.456;-4.456;2023-02-15T09:34:20;32.50;;;30.00;;
74177;SDS011;62540;48.456;-4.456;2023-02-15T09:36:47;35.00;;;29.50;;
74177;SDS011;62540;48.456;-4.456;2023-02-15T09:39:17;31.25;;;30.00;;
74177;SDS011;62540;48.456;-4.456;2023-02-15T09:59:11;27.25;;;25.75;;
74177;SDS011;62540;48.456;-4.456;2023-02-15T10:04:21;29.75;;;26.00;;
74177;SDS011;62540;48.456;-4.456;2023-02-15T10:23:59;17.50;;;15.50;;
74177;SDS011;62540;48.456;-4.456;2023-02-15T10:26:50;27.25;;;23.75;;
74177;SDS011;62540;48.456;-4.456;2023-02-15T10:29:27;25.00;;;22.00;;
74177;SDS011;62540;48.456;-4.456;2023-02-15T10:34:38;24.75;;;19.25;;
74177;SDS011;62540;48.456;-4.456;2023-02-15T10:51:17;19.50;;;18.25;;
74177;SDS011;62540;48.456;-4.456;2023-02-15T10:55:05;14.50;;;14.25;;
74177;SDS011;62540;48.456;-4.456;2023-02-15T11:00:30;20.25;;;17.75;;
74177;SDS011;62540;48.456;-4.456;2023-02-15T11:03:28;18.00;;;16.25;;
74177;SDS011;62540;48.456;-4.456;2023-02-15T11:06:17;18.75;;;15.50;;
74177;SDS011;62540;48.456;-4.456;2023-02-15T11:08:46;17.50;;;15.75;;
74177;SDS011;62540;48.456;-4.456;2023-02-15T11:11:20;17.50;;;15.75;;
74177;SDS011;62540;48.456;-4.456;2023-02-15T11:13:50;17.75;;;16.25;;
74177;SDS011;62540;48.456;-4.456;2023-02-15T11:16:23;16.25;;;16.25;;
74177;SDS011;62540;48.456;-4.456;2023-02-15T11:18:57;14.00;;;14.00;;
74177;SDS011;62540;48.456;-4.456;2023-02-15T11:21:36;17.00;;;16.50;;
74177;SDS011;62540;48.456;-4.456;2023-02-15T11:24:16;18.50;;;15.75;;
74177;SDS011;62540;48.456;-4.456;2023-02-15T11:26:54;11.50;;;10.50;;
74177;SDS011;62540;48.456;-4.456;2023-02-15T11:29:35;16.75;;;15.75;;
74177;SDS011;62540;48.456;-4.456;2023-02-15T11:34:53;13.50;;;12.25;;
74177;SDS011;62540;48.456;-4.456;2023-02-15T11:37:34;13.75;;;13.00;;
74177;SDS011;62540;48.456;-4.456;2023-02-15T11:40:27;16.25;;;14.75;;
74177;SDS011;62540;48.456;-4.456;2023-02-15T11:42:56;12.50;;;11.00;;
74177;SDS011;62540;48.456;-4.456;2023-02-15T11:45:27;13.50;;;13.00;;
74177;SDS011;62540;48.456;-4.456;2023-02-15T11:47:55;14.50;;;12.75;;
74177;SDS011;62540;48.456;-4.456;2023-02-15T11:50:22;13.50;;;12.00;;
74177;SDS011;62540;48.456;-4.456;2023-02-15T11:52:56;14.50;;;13.75;;
74177;SDS011;62540;48.456;-4.456;2023-02-15T11:55:24;19.75;;;15.25;;
74177;SDS011;62540;48.456;-4.456;2023-02-15T11:57:53;18.75;;;15.00;;
74177;SDS011;62540;48.456;-4.456;2023-02-15T12:03:02;18.25;;;16.75;;
74177;SDS011;62540;48.456;-4.456;2023-02-15T12:05:34;17.00;;;15.25;;
74177;SDS011;62540;48.456;-4.456;2023-02-15T12:08:09;18.75;;;18.00;;
74177;SDS011;62540;48.456;-4.456;2023-02-15T12:10:41;20.00;;;19.25;;
74177;SDS011;62540;48.456;-4.456;2023-02-15T12:13:22;21.00;;;18.00;;
74177;SDS011;62540;48.456;-4.456;2023-02-15T12:15:48;17.25;;;14.50;;
74177;SDS011;62540;48.456;-4.456;2023-02-15T12:18:20;17.00;;;15.50;;
74177;SDS011;62540;48.456;-4.456;2023-02-15T12:21:05;16.75;;;15.25;;
74177;SDS011;62540;48.456;-4.456;2023-02-15T12:23:34;19.00;;;17.00;;
74177;SDS011;62540;48.456;-4.456;2023-02-15T12:26:23;22.50;;;19.25;;
74177;SDS011;62540;48.456;-4.456;2023-02-15T12:28:50;22.25;;;20.75;;
74177;SDS011;62540;48.456;-4.456;2023-02-15T12:33:53;21.00;;;19.50;;
74177;SDS011;62540;48.456;-4.456;2023-02-15T12:36:24;19.50;;;19.00;;
74177;SDS011;62540;48.456;-4.456;2023-02-15T12:41:38;19.00;;;17.00;;
74177;SDS011;62540;48.456;-4.456;2023-02-15T12:44:19;23.00;;;20.75;;
74177;SDS011;62540;48.456;-4.456;2023-02-15T12:47:02;17.00;;;16.00;;
74177;SDS011;62540;48.456;-4.456;2023-02-15T12:49:42;23.75;;;21.75;;
74177;SDS011;62540;48.456;-4.456;2023-02-15T12:54:44;23.50;;;20.75;;
74177;SDS011;62540;48.456;-4.456;2023-02-15T12:59:54;16.00;;;16.00;;
74177;SDS011;62540;48.456;-4.456;2023-02-15T13:04:56;25.50;;;20.75;;
74177;SDS011;62540;48.456;-4.456;2023-02-15T13:07:30;18.75;;;18.00;;
74177;SDS011;62540;48.456;-4.456;2023-02-15T13:09:56;21.25;;;19.00;;
74177;SDS011;62540;48.456;-4.456;2023-02-15T13:12:26;23.00;;;20.25;;
74177;SDS011;62540;48.456;-4.456;2023-02-15T13:14:58;18.00;;;16.25;;
74177;SDS011;62540;48.456;-4.456;2023-02-15T13:17:27;17.50;;;14.00;;
74177;SDS011;62540;48.456;-4.456;2023-02-15T13:20:00;7.00;;;7.00;;
74177;SDS011;62540;48.456;-4.456;2023-02-15T13:22:33;12.25;;;10.75;;
74177;SDS011;62540;48.456;-4.456;2023-02-15T13:25:25;12.25;;;11.50;;
74177;SDS011;62540;48.456;-4.456;2023-02-15T13:27:55;10.00;;;8.75;;
74177;SDS011;62540;48.456;-4.456;2023-02-15T13:30:27;8.75;;;8.00;;
74177;SDS011;62540;48.456;-4.456;2023-02-15T13:38:46;11.00;;;8.50;;
74177;SDS011;62540;48.456;-4.456;2023-02-15T13:44:25;8.25;;;7.50;;
74177;SDS011;62540;48.456;-4.456;2023-02-15T13:49:38;14.25;;;10.50;;
74177;SDS011;62540;48.456;-4.456;2023-02-15T13:52:19;9.50;;;9.50;;
74177;SDS011;62540;48.456;-4.456;2023-02-15T14:00:30;12.25;;;9.50;;
74177;SDS011;62540;48.456;-4.456;2023-02-15T14:18:00;11.50;;;10.50;;
74177;SDS011;62540;48.456;-4.456;2023-02-15T14:20:20;7.50;;;7.25;;
74177;SDS011;62540;48.456;-4.456;2023-02-15T14:22:59;8.50;;;8.00;;
74177;SDS011;62540;48.456;-4.456;2023-02-15T14:31:08;12.75;;;9.50;;
74177;SDS011;62540;48.456;-4.456;2023-02-15T14:33:41;8.25;;;8.00;;
74177;SDS011;62540;48.456;-4.456;2023-02-15T14:36:13;11.50;;;8.50;;
74177;SDS011;62540;48.456;-4.456;2023-02-15T14:41:21;10.50;;;10.25;;
74177;SDS011;62540;48.456;-4.456;2023-02-15T14:47:03;10.50;;;9.50;;
74177;SDS011;62540;48.456;-4.456;2023-02-15T14:49:37;11.00;;;9.25;;
74177;SDS011;62540;48.456;-4.456;2023-02-15T14:52:07;9.50;;;7.50;;
74177;SDS011;62540;48.456;-4.456;2023-02-15T15:00:23;8.50;;;7.25;;
74177;SDS011;62540;48.456;-4.456;2023-02-15T15:02:25;10.75;;;9.00;;
74177;SDS011;62540;48.456;-4.456;2023-02-15T15:05:24;8.75;;;7.75;;
74177;SDS011;62540;48.456;-4.456;2023-02-15T15:07:59;10.25;;;8.75;;
74177;SDS011;62540;48.456;-4.456;2023-02-15T15:13:52;12.75;;;9.25;;
74177;SDS011;62540;48.456;-4.456;2023-02-15T15:15:55;11.75;;;10.75;;
74177;SDS011;62540;48.456;-4.456;2023-02-15T15:21:10;12.25;;;10.50;;
74177;SDS011;62540;48.456;-4.456;2023-02-15T15:23:40;11.75;;;10.25;;
74177;SDS011;62540;48.456;-4.456;2023-02-15T15:26:21;10.50;;;10.50;;
74177;SDS011;62540;48.456;-4.456;2023-02-15T15:31:18;12.00;;;10.50;;
74177;SDS011;62540;48.456;-4.456;2023-02-15T15:50:59;10.75;;;9.50;;
74177;SDS011;62540;48.456;-4.456;2023-02-15T15:53:27;12.50;;;11.00;;
74177;SDS011;62540;48.456;-4.456;2023-02-15T15:56:01;9.75;;;9.75;;
74177;SDS011;62540;48.456;-4.456;2023-02-15T15:58:31;12.25;;;10.75;;
74177;SDS011;62540;48.456;-4.456;2023-02-15T16:01:09;10.75;;;9.50;;
74177;SDS011;62540;48.456;-4.456;2023-02-15T16:03:38;12.75;;;10.75;;
74177;SDS011;62540;48.456;-4.456;2023-02-15T16:06:26;13.50;;;12.00;;
74177;SDS011;62540;48.456;-4.456;2023-02-15T16:08:53;17.00;;;15.25;;
74177;SDS011;62540;48.456;-4.456;2023-02-15T16:11:21;14.50;;;12.25;;
74177;SDS011;62540;48.456;-4.456;2023-02-15T16:13:49;14.00;;;12.25;;
74177;SDS011;62540;48.456;-4.456;2023-02-15T16:16:19;12.25;;;10.25;;
74177;SDS011;62540;48.456;-4.456;2023-02-15T16:18:47;14.25;;;13.00;;
74177;SDS011;62540;48.456;-4.456;2023-02-15T16:21:20;17.50;;;17.25;;
74177;SDS011;62540;48.456;-4.456;2023-02-15T16:26:58;23.25;;;19.50;;
74177;SDS011;62540;48.456;-4.456;2023-02-15T16:29:40;18.00;;;17.25;;
74177;SDS011;62540;48.456;-4.456;2023-02-15T16:32:14;16.25;;;14.25;;
74177;SDS011;62540;48.456;-4.456;2023-02-15T16:35:01;15.00;;;14.50;;
74177;SDS011;62540;48.456;-4.456;2023-02-15T16:37:31;13.00;;;12.50;;
74177;SDS011;62540;48.456;-4.456;2023-02-15T16:39:58;15.25;;;14.00;;
74177;SDS011;62540;48.456;-4.456;2023-02-15T16:42:24;31.00;;;26.50;;
74177;SDS011;62540;48.456;-4.456;2023-02-15T16:47:48;18.00;;;17.00;;
74177;SDS011;62540;48.456;-4.456;2023-02-15T16:50:19;18.00;;;15.50;;
74177;SDS011;62540;48.456;-4.456;2023-02-15T16:52:47;29.75;;;28.50;;
74177;SDS011;62540;48.456;-4.456;2023-02-15T16:55:20;34.75;;;28.00;;
74177;SDS011;62540;48.456;-4.456;2023-02-15T16:57:49;21.50;;;20.50;;
74177;SDS011;62540;48.456;-4.456;2023-02-15T17:00:19;20.75;;;17.00;;
74177;SDS011;62540;48.456;-4.456;2023-02-15T17:03:00;21.50;;;20.00;;
74177;SDS011;62540;48.456;-4.456;2023-02-15T17:05:32;18.25;;;15.50;;
74177;SDS011;62540;48.456;-4.456;2023-02-15T17:08:16;13.25;;;13.25;;
74177;SDS011;62540;48.456;-4.456;2023-02-15T17:16:34;17.00;;;16.00;;
74177;SDS011;62540;48.456;-4.456;2023-02-15T17:21:56;20.50;;;17.50;;
74177;SDS011;62540;48.456;-4.456;2023-02-15T17:26:56;21.25;;;19.25;;
74177;SDS011;62540;48.456;-4.456;2023-02-15T17:32:05;14.75;;;13.00;;
74177;SDS011;62540;48.456;-4.456;2023-02-15T17:40:20;15.50;;;14.25;;
74177;SDS011;62540;48.456;-4.456;2023-02-15T17:42:50;19.50;;;16.00;;
74177;SDS011;62540;48.456;-4.456;2023-02-15T17:45:16;21.25;;;17.25;;
74177;SDS011;62540;48.456;-4.456;2023-02-15T17:47:42;18.00;;;17.75;;
74177;SDS011;62540;48.456;-4.456;2023-02-15T17:50:10;17.75;;;16.25;;
74177;SDS011;62540;48.456;-4.456;2023-02-15T17:52:45;18.75;;;17.25;;
74177;SDS011;62540;48.456;-4.456;2023-02-15T17:55:15;17.50;;;16.50;;
74177;SDS011;62540;48.456;-4.456;2023-02-15T17:58:02;19.00;;;17.00;;
74177;SDS011;62540;48.456;-4.456;2023-02-15T18:00:30;16.00;;;13.50;;
74177;SDS011;62540;48.456;-4.456;2023-02-15T18:03:17;15.25;;;14.00;;
74177;SDS011;62540;48.456;-4.456;2023-02-15T18:06:00;18.00;;;17.00;;